sensor_id;sensor_type;location;lat;lon;timestamp;pressure;altitude;pressure_sealevel;temperature;humidity
44138;BME280;29800;55.942;37.314;2023-01-31T00:01:18;97426.44;;;-0.64;73.32
44138;BME280;29800;55.942;37.314;2023-01-31T00:03:45;97433.22;;;-0.62;73.12
44138;BME280;29800;55.942;37.314;2023-01-31T00:06:23;97429.00;;;-0.58;73.06
44138;BME280;29800;55.942;37.314;2023-01-31T00:08:50;97430.78;;;-0.63;73.00
44138;BME280;29800;55.942;37.314;2023-01-31T00:11:19;97426.56;;;-0.59;73.10
44138;BME280;29800;55.942;37.314;2023-01-31T00:13:45;97426.31;;;-0.58;72.63
44138;BME280;29800;55.942;37.314;2023-01-31T00:16:12;97430.66;;;-0.57;72.81
44138;BME280;29800;55.942;37.314;2023-01-31T00:18:38;97426.09;;;-0.56;72.63
44138;BME280;29800;55.942;37.314;2023-01-31T00:21:10;97418.97;;;-0.50;72.36
44138;BME280;29800;55.942;37.314;2023-01-31T00:23:37;97411.59;;;-0.55;72.42
44138;BME280;29800;55.942;37.314;2023-01-31T00:26:15;97420.00;;;-0.51;72.27
44138;BME280;29800;55.942;37.314;2023-01-31T00:28:43;97420.38;;;-0.60;72.27
44138;BME280;29800;55.942;37.314;2023-01-31T00:31:11;97428.31;;;-0.65;72.35
44138;BME280;29800;55.942;37.314;2023-01-31T00:33:39;97422.13;;;-0.65;72.58
44138;BME280;29800;55.942;37.314;2023-01-31T00:36:08;97430.44;;;-0.67;72.60
44138;BME280;29800;55.942;37.314;2023-01-31T00:38:35;97433.69;;;-0.65;72.56
44138;BME280;29800;55.942;37.314;2023-01-31T00:41:02;97422.47;;;-0.62;72.43
44138;BME280;29800;55.942;37.314;2023-01-31T00:43:29;97435.44;;;-0.59;72.41
44138;BME280;29800;55.942;37.314;2023-01-31T00:45:56;97423.53;;;-0.63;72.14
44138;BME280;29800;55.942;37.314;2023-01-31T00:48:23;97429.25;;;-0.59;72.33
44138;BME280;29800;55.942;37.314;2023-01-31T00:50:49;97423.63;;;-0.58;71.88
44138;BME280;29800;55.942;37.314;2023-01-31T00:53:15;97431.59;;;-0.63;72.12
44138;BME280;29800;55.942;37.314;2023-01-31T00:55:52;97433.13;;;-0.67;72.19
44138;BME280;29800;55.942;37.314;2023-01-31T00:58:19;97442.44;;;-0.69;72.13
44138;BME280;29800;55.942;37.314;2023-01-31T01:00:46;97438.25;;;-0.65;72.29
44138;BME280;29800;55.942;37.314;2023-01-31T01:03:12;97434.03;;;-0.61;72.56
44138;BME280;29800;55.942;37.314;2023-01-31T01:05:38;97446.66;;;-0.62;72.31
44138;BME280;29800;55.942;37.314;2023-01-31T01:08:05;97439.28;;;-0.54;72.17
44138;BME280;29800;55.942;37.314;2023-01-31T01:10:32;97447.22;;;-0.48;72.08
44138;BME280;29800;55.942;37.314;2023-01-31T01:13:00;97438.25;;;-0.53;71.84
44138;BME280;29800;55.942;37.314;2023-01-31T01:15:26;97444.31;;;-0.58;71.96
44138;BME280;29800;55.942;37.314;2023-01-31T01:17:54;97441.88;;;-0.60;71.82
44138;BME280;29800;55.942;37.314;2023-01-31T01:20:20;97449.25;;;-0.67;72.13
44138;BME280;29800;55.942;37.314;2023-01-31T01:22:46;97441.19;;;-0.67;72.37
44138;BME280;29800;55.942;37.314;2023-01-31T01:25:12;97451.22;;;-0.62;71.73
44138;BME280;29800;55.942;37.314;2023-01-31T01:27:38;97451.22;;;-0.62;72.19
44138;BME280;29800;55.942;37.314;2023-01-31T01:30:05;97454.25;;;-0.59;72.01
44138;BME280;29800;55.942;37.314;2023-01-31T01:32:33;97454.03;;;-0.57;72.25
44138;BME280;29800;55.942;37.314;2023-01-31T01:34:59;97463.59;;;-0.61;72.11
44138;BME280;29800;55.942;37.314;2023-01-31T01:37:25;97457.19;;;-0.60;72.31
44138;BME280;29800;55.942;37.314;2023-01-31T01:39:51;97461.63;;;-0.54;72.00
44138;BME280;29800;55.942;37.314;2023-01-31T01:42:20;97453.78;;;-0.56;72.12
44138;BME280;29800;55.942;37.314;2023-01-31T01:44:55;97447.47;;;-0.49;72.00
44138;BME280;29800;55.942;37.314;2023-01-31T01:50:11;97446.75;;;-0.33;71.66
44138;BME280;29800;55.942;37.314;2023-01-31T01:52:43;97445.38;;;-0.35;71.48
44138;BME280;29800;55.942;37.314;2023-01-31T01:55:55;97445.25;;;-0.41;71.67
44138;BME280;29800;55.942;37.314;2023-01-31T01:58:23;97443.16;;;-0.50;71.46
44138;BME280;29800;55.942;37.314;2023-01-31T02:00:52;97441.97;;;-0.54;71.66
44138;BME280;29800;55.942;37.314;2023-01-31T02:03:19;97435.56;;;-0.53;71.85
44138;BME280;29800;55.942;37.314;2023-01-31T02:05:48;97444.19;;;-0.51;72.20
44138;BME280;29800;55.942;37.314;2023-01-31T02:08:17;97444.31;;;-0.46;71.62
44138;BME280;29800;55.942;37.314;2023-01-31T02:13:31;97443.16;;;-0.50;71.40
44138;BME280;29800;55.942;37.314;2023-01-31T02:15:58;97445.38;;;-0.47;71.69
44138;BME280;29800;55.942;37.314;2023-01-31T02:18:24;97445.38;;;-0.47;71.57
44138;BME280;29800;55.942;37.314;2023-01-31T02:23:52;97436.25;;;-0.46;71.53
44138;BME280;29800;55.942;37.314;2023-01-31T02:41:17;97446.97;;;-0.34;71.19
44138;BME280;29800;55.942;37.314;2023-01-31T02:43:56;97440.22;;;-0.37;71.18
44138;BME280;29800;55.942;37.314;2023-01-31T02:47:02;97432.72;;;-0.35;71.48
44138;BME280;29800;55.942;37.314;2023-01-31T02:49:47;97439.53;;;-0.32;71.65
44138;BME280;29800;55.942;37.314;2023-01-31T02:55:27;97434.84;;;-0.37;71.22
44138;BME280;29800;55.942;37.314;2023-01-31T02:58:16;97445.13;;;-0.34;71.17
44138;BME280;29800;55.942;37.314;2023-01-31T03:00:45;97446.75;;;-0.33;70.94
44138;BME280;29800;55.942;37.314;2023-01-31T03:03:35;97446.53;;;-0.43;71.53
44138;BME280;29800;55.942;37.314;2023-01-31T03:08:42;97466.63;;;-0.34;71.29
44138;BME280;29800;55.942;37.314;2023-01-31T03:11:10;97467.69;;;-0.35;71.36
44138;BME280;29800;55.942;37.314;2023-01-31T03:16:26;97470.03;;;-0.39;71.23
44138;BME280;29800;55.942;37.314;2023-01-31T03:21:51;97466.97;;;-0.30;71.34
44138;BME280;29800;55.942;37.314;2023-01-31T03:24:20;97477.03;;;-0.38;71.37
44138;BME280;29800;55.942;37.314;2023-01-31T03:26:55;97475.28;;;-0.32;71.42
44138;BME280;29800;55.942;37.314;2023-01-31T03:29:24;97482.31;;;-0.31;71.27
44138;BME280;29800;55.942;37.314;2023-01-31T03:31:59;97467.09;;;-0.37;71.14
44138;BME280;29800;55.942;37.314;2023-01-31T03:34:28;97472.34;;;-0.19;71.44
44138;BME280;29800;55.942;37.314;2023-01-31T03:36:57;97476.47;;;-0.28;71.42
44138;BME280;29800;55.942;37.314;2023-01-31T03:39:44;97468.16;;;-0.26;71.14
44138;BME280;29800;55.942;37.314;2023-01-31T03:42:44;97472.94;;;-0.28;70.90
44138;BME280;29800;55.942;37.314;2023-01-31T03:45:32;97469.44;;;-0.29;71.30
44138;BME280;29800;55.942;37.314;2023-01-31T03:48:02;97483.22;;;-0.37;71.67
44138;BME280;29800;55.942;37.314;2023-01-31T03:50:51;97484.38;;;-0.33;71.42
44138;BME280;29800;55.942;37.314;2023-01-31T03:53:24;97479.38;;;-0.29;71.70
44138;BME280;29800;55.942;37.314;2023-01-31T03:56:03;97487.78;;;-0.26;71.73
44138;BME280;29800;55.942;37.314;2023-01-31T03:58:39;97488.03;;;-0.27;71.65
44138;BME280;29800;55.942;37.314;2023-01-31T04:01:07;97487.31;;;-0.23;71.49
44138;BME280;29800;55.942;37.314;2023-01-31T04:03:40;97495.50;;;-0.17;71.42
44138;BME280;29800;55.942;37.314;2023-01-31T04:06:09;97492.59;;;-0.28;71.29
44138;BME280;29800;55.942;37.314;2023-01-31T04:08:36;97490.47;;;-0.26;72.00
44138;BME280;29800;55.942;37.314;2023-01-31T04:11:09;97482.88;;;-0.29;71.60
44138;BME280;29800;55.942;37.314;2023-01-31T04:13:36;97488.38;;;-0.35;72.46
44138;BME280;29800;55.942;37.314;2023-01-31T04:16:02;97488.72;;;-0.32;72.31
44138;BME280;29800;55.942;37.314;2023-01-31T04:18:29;97496.78;;;-0.32;72.41
44138;BME280;29800;55.942;37.314;2023-01-31T04:20:55;97483.56;;;-0.33;72.67
44138;BME280;29800;55.942;37.314;2023-01-31T04:23:21;97494.09;;;-0.32;72.72
44138;BME280;29800;55.942;37.314;2023-01-31T04:25:51;97494.22;;;-0.27;72.84
44138;BME280;29800;55.942;37.314;2023-01-31T04:28:18;97481.59;;;-0.26;72.47
44138;BME280;29800;55.942;37.314;2023-01-31T04:30:44;97495.63;;;-0.24;72.38
44138;BME280;29800;55.942;37.314;2023-01-31T04:33:09;97494.56;;;-0.23;72.37
44138;BME280;29800;55.942;37.314;2023-01-31T04:35:38;97494.91;;;-0.31;72.73
44138;BME280;29800;55.942;37.314;2023-01-31T04:38:05;97500.50;;;-0.33;72.91
44138;BME280;29800;55.942;37.314;2023-01-31T04:40:31;97510.09;;;-0.25;72.79
44138;BME280;29800;55.942;37.314;2023-01-31T04:42:57;97505.44;;;-0.30;72.92
44138;BME280;29800;55.942;37.314;2023-01-31T04:45:23;97514.91;;;-0.27;72.60
44138;BME280;29800;55.942;37.314;2023-01-31T04:47:49;97514.56;;;-0.31;72.83
44138;BME280;29800;55.942;37.314;2023-01-31T04:50:15;97523.22;;;-0.29;72.97
44138;BME280;29800;55.942;37.314;2023-01-31T04:52:41;97517.94;;;-0.24;73.02
44138;BME280;29800;55.942;37.314;2023-01-31T04:55:08;97521.09;;;-0.27;73.23
44138;BME280;29800;55.942;37.314;2023-01-31T04:57:34;97510.34;;;-0.27;73.37
44138;BME280;29800;55.942;37.314;2023-01-31T05:00:00;97517.81;;;-0.29;73.18
44138;BME280;29800;55.942;37.314;2023-01-31T05:02:29;97525.91;;;-0.29;73.38
44138;BME280;29800;55.942;37.314;2023-01-31T05:04:55;97518.63;;;-0.28;73.60
44138;BME280;29800;55.942;37.314;2023-01-31T05:07:21;97521.94;;;-0.26;73.62
44138;BME280;29800;55.942;37.314;2023-01-31T05:09:48;97522.28;;;-0.23;73.46
44138;BME280;29800;55.942;37.314;2023-01-31T05:12:14;97531.84;;;-0.27;73.35
44138;BME280;29800;55.942;37.314;2023-01-31T05:14:40;97539.69;;;-0.25;73.60
44138;BME280;29800;55.942;37.314;2023-01-31T05:17:06;97542.13;;;-0.24;73.56
44138;BME280;29800;55.942;37.314;2023-01-31T05:19:32;97540.03;;;-0.22;73.40
44138;BME280;29800;55.942;37.314;2023-01-31T05:21:58;97540.03;;;-0.22;73.54
44138;BME280;29800;55.942;37.314;2023-01-31T05:24:27;97547.50;;;-0.24;73.62
44138;BME280;29800;55.942;37.314;2023-01-31T05:26:54;97541.22;;;-0.17;73.17
44138;BME280;29800;55.942;37.314;2023-01-31T05:29:25;97547.63;;;-0.19;73.36
44138;BME280;29800;55.942;37.314;2023-01-31T05:31:52;97553.84;;;-0.18;73.24
44138;BME280;29800;55.942;37.314;2023-01-31T05:34:18;97541.09;;;-0.23;73.27
44138;BME280;29800;55.942;37.314;2023-01-31T05:36:44;97550.66;;;-0.15;73.50
44138;BME280;29800;55.942;37.314;2023-01-31T05:39:10;97558.38;;;-0.19;73.25
44138;BME280;29800;55.942;37.314;2023-01-31T05:41:36;97547.41;;;-0.17;73.14
44138;BME280;29800;55.942;37.314;2023-01-31T05:44:02;97557.81;;;-0.09;73.19
44138;BME280;29800;55.942;37.314;2023-01-31T05:46:29;97551.97;;;-0.17;73.07
44138;BME280;29800;55.942;37.314;2023-01-31T05:48:55;97546.59;;;-0.17;73.27
44138;BME280;29800;55.942;37.314;2023-01-31T05:51:21;97550.09;;;-0.17;73.17
44138;BME280;29800;55.942;37.314;2023-01-31T05:53:47;97553.84;;;-0.18;72.90
44138;BME280;29800;55.942;37.314;2023-01-31T05:56:13;97550.19;;;-0.12;72.88
44138;BME280;29800;55.942;37.314;2023-01-31T05:58:41;97554.75;;;-0.12;73.03
44138;BME280;29800;55.942;37.314;2023-01-31T06:01:07;97549.16;;;-0.11;72.94
44138;BME280;29800;55.942;37.314;2023-01-31T06:03:34;97561.78;;;-0.11;73.05
44138;BME280;29800;55.942;37.314;2023-01-31T06:06:00;97562.94;;;-0.07;73.17
44138;BME280;29800;55.942;37.314;2023-01-31T06:08:26;97565.97;;;-0.04;72.78
44138;BME280;29800;55.942;37.314;2023-01-31T06:10:52;97564.94;;;-0.03;72.78
44138;BME280;29800;55.942;37.314;2023-01-31T06:13:18;97570.19;;;0.04;73.01
44138;BME280;29800;55.942;37.314;2023-01-31T06:15:44;97576.38;;;0.05;72.07
44138;BME280;29800;55.942;37.314;2023-01-31T06:18:11;97571.13;;;-0.02;72.70
44138;BME280;29800;55.942;37.314;2023-01-31T06:20:37;97569.50;;;-0.03;72.92
44138;BME280;29800;55.942;37.314;2023-01-31T06:23:04;97576.03;;;0.01;72.54
44138;BME280;29800;55.942;37.314;2023-01-31T06:25:30;97574.53;;;0.05;72.62
44138;BME280;29800;55.942;37.314;2023-01-31T06:27:56;97584.22;;;0.06;72.52
44138;BME280;29800;55.942;37.314;2023-01-31T06:30:22;97578.84;;;0.06;72.44
44138;BME280;29800;55.942;37.314;2023-01-31T06:32:48;97575.69;;;0.09;72.27
44138;BME280;29800;55.942;37.314;2023-01-31T06:35:14;97589.84;;;0.16;72.30
44138;BME280;29800;55.942;37.314;2023-01-31T06:37:41;97592.41;;;0.11;72.08
44138;BME280;29800;55.942;37.314;2023-01-31T06:40:07;97589.59;;;0.06;72.50
44138;BME280;29800;55.942;37.314;2023-01-31T06:42:33;97600.00;;;0.14;72.08
44138;BME280;29800;55.942;37.314;2023-01-31T06:44:59;97603.16;;;0.11;72.02
44138;BME280;29800;55.942;37.314;2023-01-31T06:47:25;97604.13;;;0.05;71.71
44138;BME280;29800;55.942;37.314;2023-01-31T06:49:51;97606.09;;;0.10;71.70
44138;BME280;29800;55.942;37.314;2023-01-31T06:52:17;97609.84;;;0.09;72.25
44138;BME280;29800;55.942;37.314;2023-01-31T06:54:43;97602.34;;;0.11;71.88
44138;BME280;29800;55.942;37.314;2023-01-31T06:57:09;97613.34;;;0.09;72.38
44138;BME280;29800;55.942;37.314;2023-01-31T06:59:35;97606.69;;;0.12;71.79
44138;BME280;29800;55.942;37.314;2023-01-31T07:02:01;97618.16;;;0.07;72.24
44138;BME280;29800;55.942;37.314;2023-01-31T07:04:27;97610.66;;;0.09;72.21
44138;BME280;29800;55.942;37.314;2023-01-31T07:06:53;97611.00;;;0.13;71.97
44138;BME280;29800;55.942;37.314;2023-01-31T07:09:19;97618.84;;;0.14;72.23
44138;BME280;29800;55.942;37.314;2023-01-31T07:11:45;97622.38;;;0.15;72.15
44138;BME280;29800;55.942;37.314;2023-01-31T07:14:11;97635.81;;;0.15;71.99
44138;BME280;29800;55.942;37.314;2023-01-31T07:16:37;97640.38;;;0.14;71.63
44138;BME280;29800;55.942;37.314;2023-01-31T07:19:03;97640.13;;;0.16;71.83
44138;BME280;29800;55.942;37.314;2023-01-31T07:21:29;97642.47;;;0.12;71.50
44138;BME280;29800;55.942;37.314;2023-01-31T07:23:58;97640.03;;;0.11;71.58
44138;BME280;29800;55.942;37.314;2023-01-31T07:26:24;97644.59;;;0.10;71.95
44138;BME280;29800;55.942;37.314;2023-01-31T07:28:51;97640.38;;;0.14;72.23
44138;BME280;29800;55.942;37.314;2023-01-31T07:31:18;97632.28;;;0.14;71.75
44138;BME280;29800;55.942;37.314;2023-01-31T07:33:44;97639.56;;;0.14;71.60
44138;BME280;29800;55.942;37.314;2023-01-31T07:36:13;97638.50;;;0.15;72.18
44138;BME280;29800;55.942;37.314;2023-01-31T07:38:40;97637.44;;;0.16;72.02
44138;BME280;29800;55.942;37.314;2023-01-31T07:41:08;97643.78;;;0.22;72.15
44138;BME280;29800;55.942;37.314;2023-01-31T07:43:34;97640.34;;;0.26;71.54
44138;BME280;29800;55.942;37.314;2023-01-31T07:46:00;97641.44;;;0.25;72.01
44138;BME280;29800;55.942;37.314;2023-01-31T07:48:26;97645.84;;;0.20;71.47
44138;BME280;29800;55.942;37.314;2023-01-31T07:50:58;97654.66;;;0.27;72.06
44138;BME280;29800;55.942;37.314;2023-01-31T07:53:27;97657.91;;;0.29;71.79
44138;BME280;29800;55.942;37.314;2023-01-31T07:55:53;97661.56;;;0.34;71.61
44138;BME280;29800;55.942;37.314;2023-01-31T07:58:20;97657.56;;;0.25;71.55
44138;BME280;29800;55.942;37.314;2023-01-31T08:00:46;97671.84;;;0.26;71.52
44138;BME280;29800;55.942;37.314;2023-01-31T08:03:30;97677.78;;;0.28;71.44
44138;BME280;29800;55.942;37.314;2023-01-31T08:06:02;97680.03;;;0.31;71.79
44138;BME280;29800;55.942;37.314;2023-01-31T08:08:28;97679.22;;;0.30;71.50
44138;BME280;29800;55.942;37.314;2023-01-31T08:10:54;97682.13;;;0.29;71.34
44138;BME280;29800;55.942;37.314;2023-01-31T08:13:20;97688.09;;;0.31;71.50
44138;BME280;29800;55.942;37.314;2023-01-31T08:15:46;97699.25;;;0.34;71.77
44138;BME280;29800;55.942;37.314;2023-01-31T08:18:12;97684.59;;;0.42;71.66
44138;BME280;29800;55.942;37.314;2023-01-31T08:20:38;97695.25;;;0.37;71.65
44138;BME280;29800;55.942;37.314;2023-01-31T08:23:06;97692.78;;;0.35;71.60
44138;BME280;29800;55.942;37.314;2023-01-31T08:25:32;97698.97;;;0.36;71.34
44138;BME280;29800;55.942;37.314;2023-01-31T08:27:59;97700.97;;;0.41;71.72
44138;BME280;29800;55.942;37.314;2023-01-31T08:30:26;97711.63;;;0.47;71.17
44138;BME280;29800;55.942;37.314;2023-01-31T08:32:52;97699.34;;;0.51;71.07
44138;BME280;29800;55.942;37.314;2023-01-31T08:35:18;97711.72;;;0.52;71.16
44138;BME280;29800;55.942;37.314;2023-01-31T08:37:44;97699.69;;;0.55;71.01
44138;BME280;29800;55.942;37.314;2023-01-31T08:40:10;97704.84;;;0.57;70.96
44138;BME280;29800;55.942;37.314;2023-01-31T08:42:37;97702.63;;;0.53;71.17
44138;BME280;29800;55.942;37.314;2023-01-31T08:45:03;97693.84;;;0.58;70.89
44138;BME280;29800;55.942;37.314;2023-01-31T08:47:29;97697.22;;;0.53;71.23
44138;BME280;29800;55.942;37.314;2023-01-31T08:49:55;97689.25;;;0.59;70.79
44138;BME280;29800;55.942;37.314;2023-01-31T08:52:21;97694.19;;;0.62;70.97
44138;BME280;29800;55.942;37.314;2023-01-31T08:54:47;97697.91;;;0.61;70.50
44138;BME280;29800;55.942;37.314;2023-01-31T08:57:13;97692.53;;;0.61;70.61
44138;BME280;29800;55.942;37.314;2023-01-31T08:59:39;97687.16;;;0.61;70.35
44138;BME280;29800;55.942;37.314;2023-01-31T09:02:08;97698.63;;;0.68;70.42
44138;BME280;29800;55.942;37.314;2023-01-31T09:04:35;97674.50;;;0.73;70.34
44138;BME280;29800;55.942;37.314;2023-01-31T09:07:00;97671.69;;;0.80;69.74
44138;BME280;29800;55.942;37.314;2023-01-31T09:09:27;97671.19;;;0.83;70.10
44138;BME280;29800;55.942;37.314;2023-01-31T09:11:53;97675.88;;;0.87;70.10
44138;BME280;29800;55.942;37.314;2023-01-31T09:14:19;97680.31;;;0.94;70.34
44138;BME280;29800;55.942;37.314;2023-01-31T09:16:44;97681.81;;;1.01;69.72
44138;BME280;29800;55.942;37.314;2023-01-31T09:19:11;97685.34;;;1.02;69.41
44138;BME280;29800;55.942;37.314;2023-01-31T09:21:37;97707.72;;;1.02;69.24
44138;BME280;29800;55.942;37.314;2023-01-31T09:24:03;97696.34;;;1.00;69.58
44138;BME280;29800;55.942;37.314;2023-01-31T09:26:30;97684.75;;;1.00;69.32
44138;BME280;29800;55.942;37.314;2023-01-31T09:28:56;97698.31;;;1.05;69.30
44138;BME280;29800;55.942;37.314;2023-01-31T09:31:23;97700.44;;;1.03;69.17
44138;BME280;29800;55.942;37.314;2023-01-31T09:33:49;97696.22;;;1.07;69.11
44138;BME280;29800;55.942;37.314;2023-01-31T09:36:17;97691.63;;;1.07;69.05
44138;BME280;29800;55.942;37.314;2023-01-31T09:38:44;97695.97;;;1.08;68.94
44138;BME280;29800;55.942;37.314;2023-01-31T09:41:24;97682.00;;;1.23;68.28
44138;BME280;29800;55.942;37.314;2023-01-31T09:46:49;97681.84;;;1.30;68.62
44138;BME280;29800;55.942;37.314;2023-01-31T09:49:29;97686.16;;;1.31;67.78
44138;BME280;29800;55.942;37.314;2023-01-31T09:52:00;97686.78;;;1.21;67.84
44138;BME280;29800;55.942;37.314;2023-01-31T09:54:36;97696.94;;;1.31;68.63
44138;BME280;29800;55.942;37.314;2023-01-31T09:57:16;97687.47;;;1.28;68.10
44138;BME280;29800;55.942;37.314;2023-01-31T10:11:02;97693.00;;;1.22;68.22
44138;BME280;29800;55.942;37.314;2023-01-31T10:13:40;97698.84;;;1.31;67.97
44138;BME280;29800;55.942;37.314;2023-01-31T10:16:23;97709.22;;;1.39;68.17
44138;BME280;29800;55.942;37.314;2023-01-31T10:18:58;97713.00;;;1.38;67.81
44138;BME280;29800;55.942;37.314;2023-01-31T10:21:46;97711.44;;;1.42;67.73
44138;BME280;29800;55.942;37.314;2023-01-31T10:24:19;97712.41;;;1.36;68.07
44138;BME280;29800;55.942;37.314;2023-01-31T10:26:50;97714.06;;;1.37;67.74
44138;BME280;29800;55.942;37.314;2023-01-31T10:29:25;97718.72;;;1.41;68.08
44138;BME280;29800;55.942;37.314;2023-01-31T10:32:09;97716.28;;;1.40;67.91
44138;BME280;29800;55.942;37.314;2023-01-31T10:34:46;97718.72;;;1.41;67.66
44138;BME280;29800;55.942;37.314;2023-01-31T10:37:32;97721.03;;;1.50;68.13
44138;BME280;29800;55.942;37.314;2023-01-31T10:40:03;97722.47;;;1.40;67.61
44138;BME280;29800;55.942;37.314;2023-01-31T10:42:34;97727.88;;;1.40;67.75
44138;BME280;29800;55.942;37.314;2023-01-31T10:45:21;97727.38;;;1.43;68.24
44138;BME280;29800;55.942;37.314;2023-01-31T10:47:54;97732.22;;;1.41;67.75
44138;BME280;29800;55.942;37.314;2023-01-31T10:56:07;97732.94;;;1.37;67.67
44138;BME280;29800;55.942;37.314;2023-01-31T10:58:36;97729.66;;;1.35;67.67
44138;BME280;29800;55.942;37.314;2023-01-31T11:01:04;97726.72;;;1.36;67.24
44138;BME280;29800;55.942;37.314;2023-01-31T11:03:37;97730.03;;;1.26;67.72
44138;BME280;29800;55.942;37.314;2023-01-31T11:06:03;97726.97;;;1.23;68.09
44138;BME280;29800;55.942;37.314;2023-01-31T11:08:35;97721.94;;;1.26;68.35
44138;BME280;29800;55.942;37.314;2023-01-31T11:11:10;97724.13;;;1.29;67.92
44138;BME280;29800;55.942;37.314;2023-01-31T11:13:37;97727.19;;;1.33;68.23
44138;BME280;29800;55.942;37.314;2023-01-31T11:16:07;97715.78;;;1.43;68.29
44138;BME280;29800;55.942;37.314;2023-01-31T11:18:37;97709.81;;;1.41;67.77
44138;BME280;29800;55.942;37.314;2023-01-31T11:21:09;97707.72;;;1.43;68.02
44138;BME280;29800;55.942;37.314;2023-01-31T11:23:35;97712.03;;;1.44;67.45
44138;BME280;29800;55.942;37.314;2023-01-31T11:26:02;97717.03;;;1.52;67.92
44138;BME280;29800;55.942;37.314;2023-01-31T11:28:37;97713.72;;;1.62;67.34
44138;BME280;29800;55.942;37.314;2023-01-31T11:31:06;97721.94;;;1.55;67.71
44138;BME280;29800;55.942;37.314;2023-01-31T11:33:55;97723.44;;;1.63;67.13
44138;BME280;29800;55.942;37.314;2023-01-31T11:36:21;97720.66;;;1.58;67.29
44138;BME280;29800;55.942;37.314;2023-01-31T11:38:49;97727.44;;;1.60;67.10
44138;BME280;29800;55.942;37.314;2023-01-31T11:41:28;97724.81;;;1.65;67.22
44138;BME280;29800;55.942;37.314;2023-01-31T11:44:13;97729.16;;;1.67;67.22
44138;BME280;29800;55.942;37.314;2023-01-31T11:49:19;97726.00;;;1.70;66.35
44138;BME280;29800;55.942;37.314;2023-01-31T11:51:46;97728.03;;;1.62;66.88
44138;BME280;29800;55.942;37.314;2023-01-31T11:54:23;97732.91;;;1.65;66.61
44138;BME280;29800;55.942;37.314;2023-01-31T11:56:51;97731.13;;;1.54;67.36
44138;BME280;29800;55.942;37.314;2023-01-31T11:59:20;97720.41;;;1.59;67.03
44138;BME280;29800;55.942;37.314;2023-01-31T12:01:51;97724.25;;;1.63;66.48
44138;BME280;29800;55.942;37.314;2023-01-31T12:04:24;97723.69;;;1.61;67.12
44138;BME280;29800;55.942;37.314;2023-01-31T12:09:27;97727.44;;;1.60;66.77
44138;BME280;29800;55.942;37.314;2023-01-31T12:11:59;97727.09;;;1.57;67.22
44138;BME280;29800;55.942;37.314;2023-01-31T12:14:37;97728.59;;;1.64;67.14
44138;BME280;29800;55.942;37.314;2023-01-31T12:17:12;97734.56;;;1.67;67.03
44138;BME280;29800;55.942;37.314;2023-01-31T12:36:01;97732.97;;;1.54;67.57
44138;BME280;29800;55.942;37.314;2023-01-31T12:38:37;97733.31;;;1.57;67.08
44138;BME280;29800;55.942;37.314;2023-01-31T12:55:45;97747.25;;;1.66;67.46
44138;BME280;29800;55.942;37.314;2023-01-31T13:01:04;97769.88;;;1.65;67.97
44138;BME280;29800;55.942;37.314;2023-01-31T13:03:52;97766.44;;;1.70;67.20
44138;BME280;29800;55.942;37.314;2023-01-31T13:06:31;97766.69;;;1.68;66.86
44138;BME280;29800;55.942;37.314;2023-01-31T13:09:03;97769.78;;;1.60;67.15
44138;BME280;29800;55.942;37.314;2023-01-31T13:11:51;97779.75;;;1.59;67.85
44138;BME280;29800;55.942;37.314;2023-01-31T13:14:22;97778.56;;;1.55;66.96
44138;BME280;29800;55.942;37.314;2023-01-31T13:16:55;97784.69;;;1.51;67.41
44138;BME280;29800;55.942;37.314;2023-01-31T13:22:30;97785.63;;;1.56;68.10
44138;BME280;29800;55.942;37.314;2023-01-31T13:27:39;97803.69;;;1.44;68.19
44138;BME280;29800;55.942;37.314;2023-01-31T13:30:18;97802.16;;;1.48;67.89
44138;BME280;29800;55.942;37.314;2023-01-31T13:32:49;97801.69;;;1.39;67.63
44138;BME280;29800;55.942;37.314;2023-01-31T13:35:22;97802.06;;;1.43;68.40
44138;BME280;29800;55.942;37.314;2023-01-31T13:37:53;97802.06;;;1.43;68.06
44138;BME280;29800;55.942;37.314;2023-01-31T13:40:25;97808.03;;;1.45;67.60
44138;BME280;29800;55.942;37.314;2023-01-31T13:42:53;97799.38;;;1.43;67.62
44138;BME280;29800;55.942;37.314;2023-01-31T13:45:26;97813.31;;;1.40;67.81
44138;BME280;29800;55.942;37.314;2023-01-31T13:48:01;97807.94;;;1.40;68.07
44138;BME280;29800;55.942;37.314;2023-01-31T13:50:41;97813.78;;;1.37;68.21
44138;BME280;29800;55.942;37.314;2023-01-31T13:53:18;97810.72;;;1.45;68.30
44138;BME280;29800;55.942;37.314;2023-01-31T13:55:46;97807.94;;;1.40;67.92
44138;BME280;29800;55.942;37.314;2023-01-31T13:58:21;97813.09;;;1.41;68.69
44138;BME280;29800;55.942;37.314;2023-01-31T14:00:57;97811.03;;;1.60;67.81
44138;BME280;29800;55.942;37.314;2023-01-31T14:03:24;97807.94;;;1.40;67.62
44138;BME280;29800;55.942;37.314;2023-01-31T14:05:56;97813.78;;;1.37;68.24
44138;BME280;29800;55.942;37.314;2023-01-31T14:08:40;97814.03;;;1.35;68.55
44138;BME280;29800;55.942;37.314;2023-01-31T14:16:37;97812.28;;;1.29;68.89
44138;BME280;29800;55.942;37.314;2023-01-31T14:27:20;97830.34;;;1.28;68.76
44138;BME280;29800;55.942;37.314;2023-01-31T14:29:50;97834.66;;;1.29;69.50
44138;BME280;29800;55.942;37.314;2023-01-31T14:38:08;97824.69;;;1.42;68.92
44138;BME280;29800;55.942;37.314;2023-01-31T15:05:01;97841.47;;;1.20;69.90
44138;BME280;29800;55.942;37.314;2023-01-31T15:07:29;97846.06;;;1.20;70.30
44138;BME280;29800;55.942;37.314;2023-01-31T15:09:56;97853.06;;;1.21;70.37
44138;BME280;29800;55.942;37.314;2023-01-31T15:12:54;97856.13;;;1.36;70.28
44138;BME280;29800;55.942;37.314;2023-01-31T15:15:38;97852.81;;;1.34;69.63
44138;BME280;29800;55.942;37.314;2023-01-31T15:18:18;97837.97;;;1.32;69.85
44138;BME280;29800;55.942;37.314;2023-01-31T15:20:54;97850.25;;;1.27;70.16
44138;BME280;29800;55.942;37.314;2023-01-31T15:23:27;97850.47;;;1.26;69.81
44138;BME280;29800;55.942;37.314;2023-01-31T15:25:56;97859.28;;;1.21;69.95
44138;BME280;29800;55.942;37.314;2023-01-31T15:28:33;97855.06;;;1.25;71.12
44138;BME280;29800;55.942;37.314;2023-01-31T15:31:05;97859.41;;;1.26;70.81
44138;BME280;29800;55.942;37.314;2023-01-31T15:33:42;97865.84;;;1.25;70.67